South Beaver Dam, Wisconsin
Current Conditions -  °F | °C
As of 12:35 AM on Wednesday 26 Nov 2014 (Local Time) from KUNU Reporting Station
Clear Clear  
Wind Chill:   Ceiling: Unl
Heat Index: 13°   Visibility: 7mi
Dew Point: 11°   Wind: 6mph
Humidity: 93%   Direction: 150°SSE
Pressure: 30.16"   Gusts: NA
Location:  43.4576°N, 88.8551°W
Report Text: KUNU 260635Z AUTO 15005KT 7SM CLR M10/M11 A3016 RMK AO2 T11051115
Loading
Personal Weather Stations






























Interactive Weather Map New forecast layout! Learn more

10-Day Weather Forecast

Advertisements
Track Severe Weather on mobile